AirNav   TITAN Aviation Fuels
 
 415 users online  

2NA0 Soderquist Airport
Wilton, North Dakota, USA

GOING TO WILTON?


FAA INFORMATION EFFECTIVE 26 JANUARY 2023

Location

FAA Identifier: 2NA0
Lat/Long: 47-15-23.9770N 100-47-46.4830W
47-15.399617N 100-47.774717W
47.2566603,-100.7962453
(estimated)
Elevation: 1880 ft. / 573 m (estimated)
Variation: 10E (1985)
From city: 6 miles N of WILTON, ND
Time zone: UTC -6 (UTC -5 during Daylight Saving Time)
Zip code: 58579

Airport Operations

Airport use: Private use. Permission required prior to landing
Activation date: 12/1983
Control tower: no
ARTCC: MINNEAPOLIS CENTER
FSS: GRAND FORKS FLIGHT SERVICE STATION
Attendance: UNATNDD
Wind indicator: yes
Segmented circle: no

Nearby radio navigation aids

VOR radial/distance  VOR name  Freq  Var
BISr338/30.2BISMARCK VOR/DME115.6512E

Airport Services

Runway Information

Runway 8/26

Dimensions: 1320 x 100 ft. / 402 x 30 m
Surface: turf
RUNWAY 8  RUNWAY 26
Traffic pattern: leftleft
Obstructions: nn

Airport Ownership and Management from official FAA records

Ownership: Privately-owned
Owner: CAROL & ERIC SODERQUIST
1353 11TH ST SW
WILTON, ND 58579-9390
Phone (701) 220-8812
Manager: ERIC SODERQUIST
1353 11TH ST SW
WILTON, ND 58579-9390
Phone 701-737-9383

Airport Operational Statistics

Aircraft based on the field: 1
Single engine airplanes: 1
    

Additional Remarks

FOR CD CTC MINNEAPOLIS ARTCC AT 651-463-5588.

Instrument Procedures

There are no published instrument procedures at 2NA0.

Some nearby airports with instrument procedures:

KBIS - Bismarck Municipal Airport (29 nm S)
Y19 - Mandan Regional Airport/Lawler Field (30 nm S)
KHZE - Mercer County Regional Airport (32 nm W)
D05 - Garrison Municipal Airport (35 nm NW)
5H4 - Harvey Municipal Airport (47 nm NE)
 
Loc | Ops | Rwys | IFR | FBO | Links
Com | Nav | Svcs | Stats | Notes

Bismarck Aero Center
AirBoss

 
Area around 2NA0 (Soderquist Airport)
 
Road maps at: MapQuest Bing Google
 
Aerial photo
No photo
 
Sectional chart

 
Airport distance calculator
Flying to Soderquist Airport? Find the distance to fly.

From to 2NA0

Sunrise and sunset
Times for 30-Jan-2023
 Local
(UTC-6)
 Zulu
(UTC)
Morning civil twilight07:3913:39
Sunrise08:1214:12
Sunset17:4123:41
Evening civil twilight18:1400:14

Current date and time
Zulu (UTC)  30-Jan-2023 08:50:53
Local (UTC-6)  30-Jan-2023 02:50:53
 
METAR
KBIS 
29nm S 
300752Z AUTO 28008KT 10SM CLR M24/M29 A3038 RMK AO2 SLP340 T12441289
KY19 
30nm S 
300835Z AUTO 27009KT 10SM CLR M28/M30 A3034 RMK AO2
KHZE 
32nm W 
300835Z AUTO 23009KT 10SM FEW015 SCT041 BKN048 M26/M30 A3036 RMK AO2
KN60 
35nm NW 
300752Z AUTO 26010KT M29/M32 A3031 RMK AO1 SLP327 T12891317
K5H4 
47nm NE 
300835Z AUTO 25009KT 10SM CLR M29/M36 A3033 RMK AO2
TAF
KBIS 
29nm S 
300537Z 3006/3106 28007KT P6SM FEW020 FM301100 24005KT P6SM FEW020 SCT250 FM301700 21010KT P6SM FEW120 SCT180 FM310100 26010KT P6SM SCT030 BKN070
NOTAMs
Click for the latest NOTAMs
NOTAMs are issued by the DoD/FAA and will open in a separate window not controlled by AirNav.

 

 
 

Would you like to see your business listed on this page?

 If your business provides an interesting product or service to pilots, flight crews, aircraft, or users of the Soderquist Airport, you should consider listing it here.  To start the listing process, click on the button below
 
Add a business
 

Other Pages about Soderquist Airport

Update a link
 
Copyright © AirNav, LLC. All rights reserved. Privacy Policy  Contact